MV Finola — OULQ2 — position and weather

sailwx.info

Track history (hours):
 
Tides and Currents Weather Stations Pressure Air Temp Water Temp Dewpoint Dewpoint Depression Visibility Wind Speed Wind Dir Waves Ship Positions

MV Finola

Last reported at 2014-Oct-29 12:10 UTC. Time now 2014-Oct-31 23:07 UTC.
Position S 07°13' E 115°47'.

Length 86 m; draft 3.2 m.

Type: Cargo ship. MMSI: 219483000.

Date/timePositionNaut miles runAvg speedWind from/ knotsBaromVisibWave heightAir tempDewpointWater temp
2014-Oct-29 12:10S 07°13' E 115°47'712.0
2014-Oct-29 11:33S 07°11' E 115°40'1211.7
2014-Oct-29 10:33S 07°07' E 115°29'1211.6
2014-Oct-29 09:33S 07°04' E 115°18'2911.7
2014-Oct-29 07:04S 06°48' E 114°53'612.1
2014-Oct-29 06:33S 06°45' E 114°48'14312.5
2014-Oct-28 19:03S 05°25' E 112°48'3112.2
2014-Oct-28 16:30S 05°08' E 112°22'  
2014-Oct-26 06:07N 01°16' E 104°10'813.3
2014-Oct-26 05:33N 01°15' E 104°03'  
Track history (hours):
 
Tides and Currents Weather Stations Pressure Air Temp Water Temp Dewpoint Dewpoint Depression Visibility Wind Speed Wind Dir Waves Ship Positions

MV Finola

Last reported at 2014-Oct-29 12:10 UTC. Time now 2014-Oct-31 23:07 UTC.
Position S 07°13' E 115°47'.

Length 86 m; draft 3.2 m.

Type: Cargo ship. MMSI: 219483000.

Date/timePositionNaut miles runAvg speedWind from/ knotsBaromVisibWave heightAir tempDewpointWater temp
2014-Oct-29 12:10S 07°13' E 115°47'712.0
2014-Oct-29 11:33S 07°11' E 115°40'1211.7
2014-Oct-29 10:33S 07°07' E 115°29'1211.6
2014-Oct-29 09:33S 07°04' E 115°18'2911.7
2014-Oct-29 07:04S 06°48' E 114°53'612.1
2014-Oct-29 06:33S 06°45' E 114°48'14312.5
2014-Oct-28 19:03S 05°25' E 112°48'3112.2
2014-Oct-28 16:30S 05°08' E 112°22'  
2014-Oct-26 06:07N 01°16' E 104°10'813.3
2014-Oct-26 05:33N 01°15' E 104°03'  

Dump ship's entire track history